createdAt,value
2017-12-27T00:00:39.786Z,73.94
2017-12-27T00:01:39.809Z,72.14
2017-12-27T00:02:39.709Z,71.85
2017-12-27T00:03:39.659Z,72.61
2017-12-27T00:04:39.618Z,72.61
2017-12-27T00:05:39.597Z,72.71
2017-12-27T00:06:39.547Z,73.08
2017-12-27T00:07:39.501Z,73.37
2017-12-27T00:08:39.452Z,73.08
2017-12-27T00:09:39.409Z,72.89
2017-12-27T00:10:39.367Z,72.52
2017-12-27T00:11:39.333Z,72.80
2017-12-27T00:12:39.283Z,71.76
2017-12-27T00:13:39.241Z,73.94
2017-12-27T00:14:39.228Z,73.94
2017-12-27T00:15:39.161Z,74.13
2017-12-27T00:16:39.119Z,74.60
2017-12-27T00:17:39.078Z,75.26
2017-12-27T00:18:39.044Z,73.65
2017-12-27T00:19:39.022Z,74.60
2017-12-27T00:20:38.950Z,73.94
2017-12-27T00:21:38.910Z,73.56
2017-12-27T00:22:38.871Z,73.56
2017-12-27T00:23:38.855Z,73.65
2017-12-27T00:24:38.782Z,74.88
2017-12-27T00:25:38.745Z,74.13
2017-12-27T00:26:38.706Z,74.69
2017-12-27T00:27:38.689Z,73.75
2017-12-27T00:28:38.621Z,74.88
2017-12-27T00:29:38.595Z,74.32
2017-12-27T00:30:38.539Z,73.37
2017-12-27T00:31:38.495Z,73.56
2017-12-27T00:32:38.460Z,73.56
2017-12-27T00:33:38.429Z,73.27
2017-12-27T00:34:38.446Z,72.80
2017-12-27T00:35:38.334Z,74.13
2017-12-27T00:36:38.283Z,72.89
2017-12-27T00:37:38.263Z,73.65
2017-12-27T00:38:38.203Z,74.13
2017-12-27T00:39:38.161Z,74.51
2017-12-27T00:40:38.167Z,74.32
2017-12-27T00:41:38.072Z,74.51
2017-12-27T00:42:38.037Z,75.17
2017-12-27T00:43:38.008Z,75.64
2017-12-27T00:44:37.951Z,75.55
2017-12-27T00:45:37.911Z,75.17
2017-12-27T00:46:37.868Z,74.79
2017-12-27T00:47:37.826Z,74.88
2017-12-27T00:48:37.786Z,74.98
2017-12-27T00:49:37.746Z,74.32
2017-12-27T00:50:37.705Z,74.32
2017-12-27T00:51:37.662Z,74.13
2017-12-27T00:52:37.625Z,73.94
2017-12-27T00:53:37.577Z,73.84
2017-12-27T00:54:37.542Z,74.79
2017-12-27T00:55:37.495Z,74.32
2017-12-27T00:56:37.459Z,74.69
2017-12-27T00:57:37.409Z,74.03
2017-12-27T00:58:37.368Z,72.89
2017-12-27T00:59:37.323Z,73.46
2017-12-27T01:00:37.285Z,73.84
2017-12-27T01:01:37.245Z,73.94
2017-12-27T01:02:37.203Z,73.75
2017-12-27T01:03:37.166Z,74.22
2017-12-27T01:04:37.116Z,74.98
2017-12-27T01:05:37.074Z,74.41
2017-12-27T01:06:37.038Z,74.22
2017-12-27T01:07:36.994Z,74.60
2017-12-27T01:08:36.956Z,74.88
2017-12-27T01:09:36.910Z,75.36
2017-12-27T01:10:36.866Z,75.84
2017-12-27T01:11:36.822Z,76.21
2017-12-27T01:12:36.783Z,76.03
2017-12-27T01:13:36.743Z,75.36
2017-12-27T01:14:36.701Z,75.93
2017-12-27T01:15:36.672Z,74.88
2017-12-27T01:16:36.621Z,73.94
2017-12-27T01:17:36.599Z,74.13
2017-12-27T01:18:36.554Z,74.60
2017-12-27T01:19:36.490Z,74.03
2017-12-27T01:20:36.470Z,74.13
2017-12-27T01:21:36.404Z,74.13
2017-12-27T01:22:36.363Z,74.03
2017-12-27T01:23:36.332Z,74.51
2017-12-27T01:24:36.281Z,74.69
2017-12-27T01:25:36.248Z,73.94
2017-12-27T01:26:36.197Z,73.75
2017-12-27T01:27:36.156Z,74.03
2017-12-27T01:28:36.114Z,74.13
2017-12-27T01:29:36.073Z,74.03
2017-12-27T01:30:36.033Z,74.22
2017-12-27T01:31:35.991Z,73.94
2017-12-27T01:32:35.948Z,74.32
2017-12-27T01:33:35.904Z,73.08
2017-12-27T01:34:35.863Z,72.23
2017-12-27T01:35:35.821Z,72.23
2017-12-27T01:36:35.779Z,71.66
2017-12-27T01:37:35.735Z,71.76
2017-12-27T01:38:35.700Z,70.90
2017-12-27T01:39:35.654Z,70.90
2017-12-27T01:40:35.613Z,70.24
2017-12-27T01:41:35.569Z,70.53
2017-12-27T01:42:35.531Z,71.00
2017-12-27T01:43:35.489Z,70.05
2017-12-27T01:44:35.445Z,70.81
2017-12-27T01:45:35.403Z,70.62
2017-12-27T01:46:35.367Z,71.66
2017-12-27T01:47:35.335Z,71.28
2017-12-27T01:48:35.277Z,71.76
2017-12-27T01:49:35.261Z,72.04
2017-12-27T01:50:35.243Z,71.09
2017-12-27T01:51:35.158Z,70.90
2017-12-27T01:52:35.111Z,70.62
2017-12-27T01:53:35.069Z,69.20
2017-12-27T01:54:35.025Z,69.77
2017-12-27T01:55:35.005Z,70.34
2017-12-27T01:56:35.007Z,70.24
2017-12-27T01:57:34.939Z,69.86
2017-12-27T01:58:34.901Z,68.15
2017-12-27T01:59:34.821Z,69.48
2017-12-27T02:00:34.778Z,69.20
2017-12-27T02:01:34.737Z,69.10
2017-12-27T02:02:34.708Z,67.87
2017-12-27T02:03:34.657Z,69.20
2017-12-27T02:04:34.618Z,67.96
2017-12-27T02:05:34.569Z,67.87
2017-12-27T02:06:34.529Z,66.26
2017-12-27T02:07:34.487Z,65.69
2017-12-27T02:08:34.443Z,65.50
2017-12-27T02:09:34.405Z,64.74
2017-12-27T02:10:34.360Z,63.57
2017-12-27T02:11:34.317Z,62.72
2017-12-27T02:12:34.274Z,62.24
2017-12-27T02:13:34.714Z,63.79
2017-12-27T02:14:34.189Z,65.59
2017-12-27T02:15:34.147Z,65.12
2017-12-27T02:16:34.106Z,66.35
2017-12-27T02:17:34.069Z,67.40
2017-12-27T02:18:34.026Z,66.83
2017-12-27T02:19:33.978Z,65.88
2017-12-27T02:20:33.939Z,65.59
2017-12-27T02:21:33.901Z,64.90
2017-12-27T02:22:33.856Z,64.71
2017-12-27T02:23:33.813Z,63.85
2017-12-27T02:24:33.772Z,62.62
2017-12-27T02:25:33.733Z,61.49
2017-12-27T02:26:33.687Z,60.54
2017-12-27T02:27:33.646Z,59.97
2017-12-27T02:28:33.606Z,59.22
2017-12-27T02:29:33.561Z,59.50
2017-12-27T02:30:33.522Z,59.03
2017-12-27T02:31:33.477Z,59.22
2017-12-27T02:32:33.436Z,58.55
2017-12-27T02:33:33.394Z,59.50
2017-12-27T02:34:33.352Z,59.69
2017-12-27T02:35:33.311Z,60.06
2017-12-27T02:36:33.272Z,59.97
2017-12-27T02:37:33.230Z,59.31
2017-12-27T02:38:33.186Z,59.59
2017-12-27T02:39:33.147Z,58.65
2017-12-27T02:40:33.126Z,57.89
2017-12-27T02:41:33.062Z,57.60
2017-12-27T02:42:33.019Z,57.98
2017-12-27T02:43:32.976Z,57.32
2017-12-27T02:44:32.934Z,57.13
2017-12-27T02:45:32.891Z,56.85
2017-12-27T02:46:32.850Z,56.37
2017-12-27T02:47:32.809Z,55.43
2017-12-27T02:48:32.762Z,56.37
2017-12-27T02:49:32.747Z,57.13
2017-12-27T02:50:32.682Z,56.27
2017-12-27T02:51:32.640Z,57.42
2017-12-27T02:52:32.597Z,59.31
2017-12-27T02:53:32.554Z,58.55
2017-12-27T02:54:32.515Z,58.74
2017-12-27T02:55:32.475Z,58.45
2017-12-27T02:56:32.426Z,59.97
2017-12-27T02:57:32.390Z,59.69
2017-12-27T02:58:32.346Z,59.22
2017-12-27T02:59:32.301Z,59.22
2017-12-27T03:00:32.270Z,58.93
2017-12-27T03:01:32.225Z,59.31
2017-12-27T03:02:32.177Z,58.55
2017-12-27T03:03:32.133Z,58.55
2017-12-27T03:04:32.102Z,58.36
2017-12-27T03:05:32.048Z,57.79
2017-12-27T03:06:32.024Z,57.13
2017-12-27T03:07:31.966Z,58.74
2017-12-27T03:08:31.927Z,58.93
2017-12-27T03:09:31.881Z,59.88
2017-12-27T03:10:31.837Z,59.88
2017-12-27T03:11:31.795Z,60.44
2017-12-27T03:12:31.755Z,59.31
2017-12-27T03:13:31.712Z,59.78
2017-12-27T03:14:31.678Z,60.16
2017-12-27T03:15:31.641Z,60.64
2017-12-27T03:16:31.590Z,61.40
2017-12-27T03:17:31.546Z,61.58
2017-12-27T03:18:31.504Z,62.24
2017-12-27T03:19:31.458Z,62.91
2017-12-27T03:20:31.415Z,62.15
2017-12-27T03:21:31.375Z,60.35
2017-12-27T03:22:31.335Z,61.21
2017-12-27T03:23:31.289Z,59.31
2017-12-27T03:24:31.251Z,58.65
2017-12-27T03:25:31.209Z,58.36
2017-12-27T03:26:31.166Z,57.51
2017-12-27T03:27:31.120Z,57.13
2017-12-27T03:28:31.079Z,58.36
2017-12-27T03:29:31.038Z,57.51
2017-12-27T03:30:31.012Z,58.36
2017-12-27T03:31:30.954Z,59.31
2017-12-27T03:32:30.915Z,59.97
2017-12-27T03:33:30.880Z,59.78
2017-12-27T03:34:30.828Z,60.73
2017-12-27T03:35:30.788Z,60.35
2017-12-27T03:36:30.743Z,59.31
2017-12-27T03:37:30.704Z,59.50
2017-12-27T03:38:30.663Z,58.55
2017-12-27T03:39:30.617Z,58.45
2017-12-27T03:40:30.575Z,57.32
2017-12-27T03:41:30.558Z,58.36
2017-12-27T03:42:30.495Z,57.70
2017-12-27T03:43:30.471Z,57.79
2017-12-27T03:44:30.409Z,57.04
2017-12-27T03:45:30.367Z,56.75
2017-12-27T03:46:30.327Z,55.90
2017-12-27T03:47:30.290Z,54.86
2017-12-27T03:48:30.238Z,54.67
2017-12-27T03:49:30.196Z,54.19
2017-12-27T03:50:30.161Z,53.53
2017-12-27T03:51:30.113Z,52.58
2017-12-27T03:52:30.072Z,52.39
2017-12-27T03:53:30.028Z,51.07
2017-12-27T03:54:29.986Z,51.64
2017-12-27T03:55:29.944Z,52.20
2017-12-27T03:56:29.913Z,52.39
2017-12-27T03:57:29.876Z,53.15
2017-12-27T03:58:29.826Z,54.00
2017-12-27T03:59:29.781Z,54.19
2017-12-27T04:00:29.746Z,54.00
2017-12-27T04:01:29.692Z,54.28
2017-12-27T04:02:29.656Z,54.47
2017-12-27T04:03:29.617Z,54.19
2017-12-27T04:04:29.564Z,53.81
2017-12-27T04:05:29.535Z,54.00
2017-12-27T04:06:29.480Z,55.62
2017-12-27T04:07:29.457Z,55.24
2017-12-27T04:08:29.398Z,55.52
2017-12-27T04:09:29.352Z,56.37
2017-12-27T04:10:29.313Z,56.94
2017-12-27T04:11:29.266Z,57.42
2017-12-27T04:12:29.225Z,56.56
2017-12-27T04:13:29.181Z,57.70
2017-12-27T04:14:29.143Z,58.93
2017-12-27T04:15:29.106Z,57.79
2017-12-27T04:16:29.057Z,57.32
2017-12-27T04:17:29.016Z,56.37
2017-12-27T04:18:28.975Z,55.43
2017-12-27T04:19:28.981Z,55.14
2017-12-27T04:20:28.900Z,55.24
2017-12-27T04:21:28.871Z,54.38
2017-12-27T04:22:28.810Z,54.76
2017-12-27T04:23:28.773Z,55.14
2017-12-27T04:24:28.722Z,55.62
2017-12-27T04:25:28.685Z,53.72
2017-12-27T04:26:28.641Z,53.63
2017-12-27T04:27:28.604Z,53.91
2017-12-27T04:28:28.553Z,54.67
2017-12-27T04:29:28.513Z,55.43
2017-12-27T04:30:28.473Z,56.09
2017-12-27T04:31:28.434Z,56.09
2017-12-27T04:32:28.399Z,55.14
2017-12-27T04:33:28.395Z,54.86
2017-12-27T04:34:28.309Z,56.56
2017-12-27T04:35:28.273Z,55.90
2017-12-27T04:36:28.219Z,54.28
2017-12-27T04:37:28.180Z,54.76
2017-12-27T04:38:28.133Z,55.33
2017-12-27T04:39:28.090Z,55.43
2017-12-27T04:40:28.062Z,55.24
2017-12-27T04:41:28.013Z,54.83
2017-12-27T04:42:28.740Z,53.69
2017-12-27T04:43:27.926Z,53.63
2017-12-27T04:44:27.879Z,52.77
2017-12-27T04:45:27.834Z,53.31
2017-12-27T04:46:27.792Z,53.34
2017-12-27T04:47:27.753Z,53.63
2017-12-27T04:48:27.705Z,53.81
2017-12-27T04:49:27.666Z,54.19
2017-12-27T04:50:27.649Z,54.10
2017-12-27T04:51:27.589Z,53.91
2017-12-27T04:52:27.539Z,54.28
2017-12-27T04:53:27.495Z,54.47
2017-12-27T04:54:27.455Z,55.30
2017-12-27T04:55:27.411Z,54.93
2017-12-27T04:56:27.391Z,54.76
2017-12-27T04:57:27.331Z,54.19
2017-12-27T04:58:27.292Z,53.88
2017-12-27T04:59:27.242Z,54.00
2017-12-27T05:00:27.202Z,53.97
2017-12-27T05:01:27.159Z,53.97
2017-12-27T05:02:27.114Z,53.59
2017-12-27T05:03:27.071Z,52.94
2017-12-27T05:04:27.030Z,53.88
2017-12-27T05:05:26.988Z,54.83
2017-12-27T05:06:26.963Z,54.64
2017-12-27T05:07:26.904Z,53.97
2017-12-27T05:08:26.874Z,53.97
2017-12-27T05:09:26.818Z,53.59
2017-12-27T05:10:26.775Z,52.75
2017-12-27T05:11:26.735Z,51.14
2017-12-27T05:12:26.690Z,51.23
2017-12-27T05:13:26.648Z,53.88
2017-12-27T05:14:26.609Z,53.88
2017-12-27T05:15:26.564Z,53.78
2017-12-27T05:16:26.521Z,54.07
2017-12-27T05:17:26.491Z,54.26
2017-12-27T05:18:26.450Z,53.50
2017-12-27T05:19:26.398Z,52.65
2017-12-27T05:20:26.355Z,52.27
2017-12-27T05:21:26.317Z,51.89
2017-12-27T05:22:26.271Z,51.99
2017-12-27T05:23:26.227Z,51.80
2017-12-27T05:24:26.187Z,50.85
2017-12-27T05:25:26.142Z,50.57
2017-12-27T05:26:26.118Z,49.71
2017-12-27T05:27:26.057Z,50.57
2017-12-27T05:28:26.037Z,50.76
2017-12-27T05:29:25.973Z,49.43
2017-12-27T05:30:25.932Z,49.24
2017-12-27T05:31:25.887Z,48.39
2017-12-27T05:32:25.845Z,48.20
2017-12-27T05:33:25.804Z,48.29
2017-12-27T05:34:25.761Z,48.01
2017-12-27T05:35:25.717Z,47.82
2017-12-27T05:36:25.691Z,47.82
2017-12-27T05:37:25.633Z,47.34
2017-12-27T05:38:25.598Z,46.50
2017-12-27T05:39:25.559Z,46.69
2017-12-27T05:40:25.505Z,46.59
2017-12-27T05:41:25.467Z,45.93
2017-12-27T05:42:25.418Z,46.97
2017-12-27T05:43:25.380Z,47.25
2017-12-27T05:44:25.344Z,47.34
2017-12-27T05:45:25.291Z,47.63
2017-12-27T05:46:25.257Z,47.16
2017-12-27T05:47:25.207Z,46.88
2017-12-27T05:48:25.165Z,48.10
2017-12-27T05:49:25.125Z,48.49
2017-12-27T05:50:25.080Z,48.10
2017-12-27T05:51:25.037Z,48.20
2017-12-27T05:52:24.995Z,47.44
2017-12-27T05:53:24.955Z,48.20
2017-12-27T05:54:24.912Z,48.29
2017-12-27T05:55:24.867Z,48.49
2017-12-27T05:56:24.826Z,49.33
2017-12-27T05:57:24.794Z,48.49
2017-12-27T05:58:24.741Z,48.77
2017-12-27T05:59:24.696Z,48.39
2017-12-27T06:00:24.654Z,48.10
2017-12-27T06:01:24.613Z,48.39
2017-12-27T06:02:24.581Z,48.77
2017-12-27T06:03:24.525Z,47.72
2017-12-27T06:04:24.485Z,47.91
2017-12-27T06:05:24.440Z,47.82
2017-12-27T06:06:24.399Z,48.49
2017-12-27T06:07:24.357Z,48.86
2017-12-27T06:08:24.317Z,48.86
2017-12-27T06:09:24.271Z,49.43
2017-12-27T06:10:24.229Z,49.43
2017-12-27T06:11:24.187Z,49.15
2017-12-27T06:12:24.144Z,49.05
2017-12-27T06:13:24.103Z,48.96
2017-12-27T06:14:24.068Z,48.86
2017-12-27T06:15:24.017Z,49.43
2017-12-27T06:16:23.972Z,51.14
2017-12-27T06:17:23.931Z,50.85
2017-12-27T06:18:23.892Z,50.57
2017-12-27T06:19:23.846Z,49.81
2017-12-27T06:20:23.809Z,51.23
2017-12-27T06:21:23.760Z,51.70
2017-12-27T06:22:23.717Z,53.22
2017-12-27T06:23:23.675Z,52.94
2017-12-27T06:24:23.635Z,52.75
2017-12-27T06:25:23.619Z,53.13
2017-12-27T06:26:23.550Z,53.13
2017-12-27T06:27:23.504Z,53.78
2017-12-27T06:28:23.481Z,53.78
2017-12-27T06:29:23.424Z,53.88
2017-12-27T06:30:23.377Z,53.88
2017-12-27T06:31:23.334Z,54.16
2017-12-27T06:32:23.298Z,54.93
2017-12-27T06:33:23.252Z,55.11
2017-12-27T06:34:23.212Z,54.93
2017-12-27T06:35:23.172Z,55.49
2017-12-27T06:36:23.124Z,55.02
2017-12-27T06:37:23.079Z,54.93
2017-12-27T06:38:23.039Z,54.74
2017-12-27T06:39:22.997Z,55.02
2017-12-27T06:40:22.952Z,54.74
2017-12-27T06:41:22.909Z,54.55
2017-12-27T06:42:22.868Z,54.74
2017-12-27T06:43:22.833Z,54.83
2017-12-27T06:44:22.783Z,55.02
2017-12-27T06:45:22.740Z,55.58
2017-12-27T06:46:22.699Z,55.87
2017-12-27T06:47:22.652Z,56.15
2017-12-27T06:48:22.626Z,57.01
2017-12-27T06:49:22.568Z,56.82
2017-12-27T06:50:22.525Z,57.57
2017-12-27T06:51:22.482Z,58.62
2017-12-27T06:52:22.452Z,58.62
2017-12-27T06:53:22.398Z,58.24
2017-12-27T06:54:22.367Z,58.52
2017-12-27T06:55:22.320Z,58.62
2017-12-27T06:56:22.273Z,58.90
2017-12-27T06:57:22.241Z,60.03
2017-12-27T06:58:22.186Z,59.47
2017-12-27T06:59:22.142Z,60.13
2017-12-27T07:00:22.121Z,60.89
2017-12-27T07:01:22.057Z,61.08
2017-12-27T07:02:22.046Z,62.21
2017-12-27T07:03:21.974Z,62.21
2017-12-27T07:04:21.932Z,61.74
2017-12-27T07:05:21.893Z,62.21
2017-12-27T07:06:21.852Z,61.46
2017-12-27T07:07:21.801Z,62.50
2017-12-27T07:08:21.757Z,63.45
2017-12-27T07:09:21.725Z,63.54
2017-12-27T07:10:22.270Z,66.95
2017-12-27T07:11:21.628Z,67.05
2017-12-27T07:12:21.597Z,66.86
2017-12-27T07:13:21.547Z,67.61
2017-12-27T07:14:21.503Z,67.24
2017-12-27T07:15:21.467Z,67.05
2017-12-27T07:16:21.417Z,69.03
2017-12-27T07:17:21.380Z,69.60
2017-12-27T07:18:21.336Z,70.83
2017-12-27T07:19:21.294Z,71.31
2017-12-27T07:20:21.256Z,71.50
2017-12-27T07:21:21.207Z,71.97
2017-12-27T07:22:21.172Z,73.11
2017-12-27T07:23:21.122Z,72.82
2017-12-27T07:24:21.083Z,72.73
2017-12-27T07:25:21.038Z,71.59
2017-12-27T07:26:20.994Z,72.16
2017-12-27T07:27:20.957Z,71.88
2017-12-27T07:28:20.909Z,73.77
2017-12-27T07:29:20.871Z,73.86
2017-12-27T07:30:20.825Z,72.82
2017-12-27T07:31:20.782Z,73.96
2017-12-27T07:32:20.740Z,74.43
2017-12-27T07:33:20.694Z,75.60
2017-12-27T07:34:20.657Z,74.66
2017-12-27T07:35:20.610Z,75.23
2017-12-27T07:36:20.571Z,75.70
2017-12-27T07:37:20.530Z,75.60
2017-12-27T07:38:20.486Z,75.13
2017-12-27T07:39:20.440Z,75.23
2017-12-27T07:40:20.398Z,76.17
2017-12-27T07:41:20.355Z,76.55
2017-12-27T07:42:20.316Z,76.84
2017-12-27T07:43:20.272Z,77.97
2017-12-27T07:44:20.251Z,77.40
2017-12-27T07:45:20.187Z,77.40
2017-12-27T07:46:20.150Z,77.69
2017-12-27T07:47:20.106Z,76.65
2017-12-27T07:48:20.060Z,77.88
2017-12-27T07:49:20.022Z,78.16
2017-12-27T07:50:19.978Z,78.07
2017-12-27T07:51:19.937Z,77.40
2017-12-27T07:52:19.894Z,77.88
2017-12-27T07:53:19.844Z,77.40
2017-12-27T07:54:19.804Z,77.88
2017-12-27T07:55:19.764Z,78.16
2017-12-27T07:56:19.730Z,78.26
2017-12-27T07:57:19.682Z,78.54
2017-12-27T07:58:19.646Z,78.26
2017-12-27T07:59:19.598Z,78.07
2017-12-27T08:00:19.558Z,78.54
2017-12-27T08:01:19.508Z,79.11
2017-12-27T08:02:19.466Z,79.77
2017-12-27T08:03:19.431Z,79.49
2017-12-27T08:04:19.383Z,80.06
2017-12-27T08:05:19.343Z,79.77
2017-12-27T08:06:19.299Z,79.87
2017-12-27T08:07:19.270Z,79.11
2017-12-27T08:08:19.217Z,79.39
2017-12-27T08:09:19.173Z,79.39
2017-12-27T08:10:19.131Z,79.21
2017-12-27T08:11:19.088Z,79.77
2017-12-27T08:12:19.048Z,79.96
2017-12-27T08:13:19.013Z,80.06
2017-12-27T08:14:18.966Z,80.25
2017-12-27T08:15:18.917Z,79.49
2017-12-27T08:16:18.911Z,79.58
2017-12-27T08:17:18.835Z,79.77
2017-12-27T08:18:18.792Z,79.87
2017-12-27T08:19:18.793Z,80.06
2017-12-27T08:20:18.706Z,79.77
2017-12-27T08:21:18.669Z,80.15
2017-12-27T08:22:18.633Z,80.53
2017-12-27T08:23:18.590Z,81.38
2017-12-27T08:24:18.543Z,81.57
2017-12-27T08:25:18.497Z,81.20
2017-12-27T08:26:18.454Z,81.38
2017-12-27T08:27:18.421Z,81.20
2017-12-27T08:28:18.371Z,81.67
2017-12-27T08:29:18.448Z,80.72
2017-12-27T08:30:18.286Z,81.01
2017-12-27T08:31:18.243Z,80.63
2017-12-27T08:32:18.204Z,80.63
2017-12-27T08:33:18.162Z,81.20
2017-12-27T08:34:18.119Z,81.38
2017-12-27T08:35:18.078Z,81.20
2017-12-27T08:36:18.036Z,81.29
2017-12-27T08:37:17.991Z,81.71
2017-12-27T08:38:17.955Z,81.71
2017-12-27T08:39:17.915Z,82.14
2017-12-27T08:40:17.869Z,81.62
2017-12-27T08:41:17.834Z,82.56
2017-12-27T08:42:17.789Z,82.09
2017-12-27T08:43:17.743Z,82.94
2017-12-27T08:44:17.703Z,83.32
2017-12-27T08:45:17.658Z,85.50
2017-12-27T08:46:17.628Z,85.22
2017-12-27T08:47:17.578Z,85.41
2017-12-27T08:48:17.530Z,85.69
2017-12-27T08:49:17.495Z,86.26
2017-12-27T08:50:17.459Z,85.88
2017-12-27T08:51:17.410Z,86.55
2017-12-27T08:52:17.367Z,86.83
2017-12-27T08:53:17.331Z,87.40
2017-12-27T08:54:17.296Z,87.30
2017-12-27T08:55:17.240Z,87.68
2017-12-27T08:56:17.214Z,86.83
2017-12-27T08:57:17.159Z,87.40
2017-12-27T08:58:17.119Z,87.02
2017-12-27T08:59:17.074Z,87.87
2017-12-27T09:00:17.035Z,87.30
2017-12-27T09:01:16.993Z,87.21
2017-12-27T09:02:16.970Z,87.40
2017-12-27T09:03:16.915Z,87.40
2017-12-27T09:04:16.868Z,87.21
2017-12-27T09:05:16.889Z,87.12
2017-12-27T09:06:16.793Z,86.93
2017-12-27T09:07:16.758Z,87.21
2017-12-27T09:08:16.701Z,88.44
2017-12-27T09:09:16.667Z,87.30
2017-12-27T09:10:16.622Z,87.87
2017-12-27T09:11:16.578Z,87.87
2017-12-27T09:12:16.535Z,88.73
2017-12-27T09:13:16.494Z,88.44
2017-12-27T09:14:16.453Z,89.58
2017-12-27T09:15:16.416Z,88.82
2017-12-27T09:16:16.377Z,89.77
2017-12-27T09:17:16.333Z,88.82
2017-12-27T09:18:16.294Z,89.01
2017-12-27T09:19:16.263Z,89.67
2017-12-27T09:20:16.212Z,89.77
2017-12-27T09:21:16.170Z,90.53
2017-12-27T09:22:16.131Z,91.28
2017-12-27T09:23:16.084Z,91.09
2017-12-27T09:24:16.038Z,91.33
2017-12-27T09:25:16.000Z,92.66
2017-12-27T09:26:15.959Z,92.47
2017-12-27T09:27:15.921Z,92.18
2017-12-27T09:28:15.877Z,92.47
2017-12-27T09:29:15.831Z,92.76
2017-12-27T09:30:15.798Z,92.18
2017-12-27T09:31:15.759Z,92.04
2017-12-27T09:32:15.710Z,91.99
2017-12-27T09:33:15.668Z,91.76
2017-12-27T09:34:15.630Z,91.24
2017-12-27T09:35:15.603Z,91.33
2017-12-27T09:36:15.546Z,91.47
2017-12-27T09:37:15.502Z,91.95
2017-12-27T09:38:15.468Z,91.47
2017-12-27T09:39:15.423Z,91.42
2017-12-27T09:40:15.379Z,91.76
2017-12-27T09:41:15.350Z,91.52
2017-12-27T09:42:15.304Z,91.52
2017-12-27T09:43:15.255Z,91.33
2017-12-27T09:44:15.213Z,91.52
2017-12-27T09:45:15.171Z,91.33
2017-12-27T09:46:15.137Z,91.52
2017-12-27T09:47:15.090Z,91.42
2017-12-27T09:48:15.050Z,92.57
2017-12-27T09:49:15.011Z,91.90
2017-12-27T09:50:14.968Z,92.57
2017-12-27T09:51:14.932Z,92.47
2017-12-27T09:52:14.888Z,93.80
2017-12-27T09:53:14.854Z,93.99
2017-12-27T09:54:14.805Z,94.18
2017-12-27T09:55:14.765Z,93.61
2017-12-27T09:56:14.720Z,94.65
2017-12-27T09:57:14.680Z,94.65
2017-12-27T09:58:14.640Z,93.80
2017-12-27T09:59:14.600Z,95.41
2017-12-27T10:00:14.560Z,95.41
2017-12-27T10:01:14.518Z,95.79
2017-12-27T10:02:14.473Z,95.60
2017-12-27T10:03:14.434Z,95.31
2017-12-27T10:04:14.406Z,95.31
2017-12-27T10:05:14.351Z,95.41
2017-12-27T10:06:14.315Z,95.88
2017-12-27T10:07:14.268Z,95.79
2017-12-27T10:08:14.229Z,96.64
2017-12-27T10:09:14.187Z,96.88
2017-12-27T10:10:14.150Z,96.59
2017-12-27T10:11:14.116Z,96.88
2017-12-27T10:12:14.070Z,97.45
2017-12-27T10:13:14.036Z,98.21
2017-12-27T10:14:13.986Z,98.11
2017-12-27T10:15:13.982Z,97.92
2017-12-27T10:16:13.908Z,97.17
2017-12-27T10:17:13.883Z,97.45
2017-12-27T10:18:13.820Z,97.83
2017-12-27T10:19:13.784Z,97.64
2017-12-27T10:20:13.742Z,97.83
2017-12-27T10:21:13.698Z,98.02
2017-12-27T10:22:13.704Z,97.64
2017-12-27T10:23:13.615Z,98.68
2017-12-27T10:24:13.578Z,98.21
2017-12-27T10:25:13.535Z,99.44
2017-12-27T10:26:13.505Z,98.11
2017-12-27T10:27:13.459Z,98.68
2017-12-27T10:28:13.410Z,98.21
2017-12-27T10:29:13.374Z,98.02
2017-12-27T10:30:13.333Z,97.64
2017-12-27T10:31:13.293Z,98.59
2017-12-27T10:32:13.252Z,98.59
2017-12-27T10:33:13.211Z,98.59
2017-12-27T10:34:13.173Z,99.16
2017-12-27T10:35:13.129Z,99.16
2017-12-27T10:36:13.127Z,99.26
2017-12-27T10:37:13.047Z,99.35
2017-12-27T10:38:13.018Z,99.99
2017-12-27T10:39:12.970Z,99.63
2017-12-27T10:40:12.928Z,99.99
2017-12-27T10:41:12.888Z,99.99
2017-12-27T10:42:12.847Z,99.99
2017-12-27T10:43:12.827Z,99.73
2017-12-27T10:44:12.771Z,99.54
2017-12-27T10:45:12.730Z,99.63
2017-12-27T10:46:12.683Z,99.91
2017-12-27T10:47:12.646Z,99.54
2017-12-27T10:48:12.612Z,99.99
2017-12-27T10:49:12.567Z,99.99
2017-12-27T10:50:12.520Z,99.99
2017-12-27T10:51:12.481Z,99.99
2017-12-27T10:52:12.442Z,99.99
2017-12-27T10:53:12.408Z,99.99
2017-12-27T10:54:12.360Z,99.99
2017-12-27T10:55:12.320Z,99.99
2017-12-27T10:56:12.287Z,99.91
2017-12-27T10:57:12.238Z,99.99
2017-12-27T10:58:12.198Z,99.99
2017-12-27T10:59:12.163Z,99.99
2017-12-27T11:00:12.123Z,99.99
2017-12-27T11:01:12.076Z,99.99
2017-12-27T11:02:12.061Z,99.99
2017-12-27T11:03:12.001Z,99.99
2017-12-27T11:04:11.974Z,99.99
2017-12-27T11:05:11.919Z,99.99
2017-12-27T11:06:11.884Z,99.99
2017-12-27T11:07:11.838Z,99.99
2017-12-27T11:08:11.808Z,99.99
2017-12-27T11:09:11.753Z,99.99
2017-12-27T11:10:11.709Z,99.99
2017-12-27T11:11:11.677Z,99.99
2017-12-27T11:12:11.639Z,99.99
2017-12-27T11:13:11.590Z,99.99
2017-12-27T11:14:11.564Z,99.99
2017-12-27T11:15:11.508Z,99.99
2017-12-27T11:16:11.472Z,99.99
2017-12-27T11:17:11.431Z,99.99
2017-12-27T11:18:11.395Z,99.99
2017-12-27T11:19:11.353Z,99.99
2017-12-27T11:20:11.310Z,99.99
2017-12-27T11:21:11.269Z,99.99
2017-12-27T11:22:11.225Z,99.99
2017-12-27T11:23:11.188Z,99.99
2017-12-27T11:24:11.146Z,99.99
2017-12-27T11:25:11.105Z,99.99
2017-12-27T11:26:11.063Z,99.99
2017-12-27T11:27:11.041Z,99.99
2017-12-27T11:28:10.987Z,99.99
2017-12-27T11:29:10.941Z,99.99
2017-12-27T11:30:10.901Z,99.99
2017-12-27T11:31:10.863Z,99.99
2017-12-27T11:32:10.818Z,99.99
2017-12-27T11:33:10.788Z,99.99
2017-12-27T11:34:10.738Z,99.99
2017-12-27T11:35:10.702Z,99.99
2017-12-27T11:36:10.662Z,99.99
2017-12-27T11:37:10.616Z,99.99
2017-12-27T11:38:10.581Z,99.99
2017-12-27T11:39:10.540Z,99.99
2017-12-27T11:40:10.503Z,99.99
2017-12-27T11:41:10.462Z,99.99
2017-12-27T11:42:10.422Z,99.99
2017-12-27T11:43:10.375Z,99.99
2017-12-27T11:44:10.340Z,99.99
2017-12-27T11:45:10.300Z,99.99
2017-12-27T11:46:10.261Z,99.99
2017-12-27T11:47:10.215Z,99.99
2017-12-27T11:48:10.176Z,99.99
2017-12-27T11:49:10.134Z,99.99
2017-12-27T11:50:10.094Z,99.99
2017-12-27T11:51:10.082Z,99.99
2017-12-27T11:52:10.023Z,99.99
2017-12-27T11:53:10.001Z,99.99
2017-12-27T11:54:09.937Z,99.99
2017-12-27T11:55:09.893Z,99.99
2017-12-27T11:56:09.866Z,99.99
2017-12-27T11:57:09.881Z,99.99
2017-12-27T11:58:09.775Z,99.99
2017-12-27T11:59:09.729Z,99.99
2017-12-27T12:00:09.690Z,99.99
2017-12-27T12:01:09.655Z,99.99
2017-12-27T12:02:09.687Z,99.99
2017-12-27T12:03:09.588Z,99.99
2017-12-27T12:04:09.546Z,99.99
2017-12-27T12:05:09.526Z,99.99
2017-12-27T12:06:09.487Z,99.99
2017-12-27T12:07:09.405Z,99.99
2017-12-27T12:08:09.376Z,99.99
2017-12-27T12:09:09.337Z,99.99
2017-12-27T12:10:09.301Z,99.99
2017-12-27T12:11:09.248Z,99.99
2017-12-27T12:12:09.219Z,99.99
2017-12-27T12:13:09.171Z,99.99
2017-12-27T12:14:09.134Z,99.99
2017-12-27T12:15:09.088Z,99.99
2017-12-27T12:16:09.052Z,99.99
2017-12-27T12:17:09.006Z,99.99
2017-12-27T12:18:08.968Z,99.99
2017-12-27T12:19:08.932Z,99.99
2017-12-27T12:20:08.888Z,99.99
2017-12-27T12:21:08.848Z,99.99
2017-12-27T12:22:08.808Z,99.99
2017-12-27T12:23:08.771Z,99.99
2017-12-27T12:24:08.726Z,99.99
2017-12-27T12:25:08.693Z,99.99
2017-12-27T12:26:08.650Z,99.99
2017-12-27T12:27:08.610Z,99.99
2017-12-27T12:28:08.566Z,99.99
2017-12-27T12:29:08.527Z,99.99
2017-12-27T12:30:08.493Z,99.99
2017-12-27T12:31:08.447Z,99.99
2017-12-27T12:32:08.409Z,99.99
2017-12-27T12:33:08.377Z,99.99
2017-12-27T12:34:08.351Z,99.99
2017-12-27T12:35:08.285Z,99.99
2017-12-27T12:36:08.246Z,99.99
2017-12-27T12:37:08.211Z,99.99
2017-12-27T12:38:08.171Z,99.99
2017-12-27T12:39:08.134Z,99.99
2017-12-27T12:40:08.087Z,99.99
2017-12-27T12:41:08.045Z,99.99
2017-12-27T12:42:08.015Z,99.99
2017-12-27T12:43:07.970Z,99.99
2017-12-27T12:44:07.930Z,99.99
2017-12-27T12:45:07.888Z,99.99
2017-12-27T12:46:07.845Z,99.99
2017-12-27T12:47:07.823Z,99.99
2017-12-27T12:48:07.765Z,99.99
2017-12-27T12:49:07.727Z,99.99
2017-12-27T12:50:07.698Z,99.99
2017-12-27T12:51:07.645Z,99.99
2017-12-27T12:52:07.606Z,99.99